Time;durP1;ratioP1;P1;durP2;ratioP2;P2;SDS_P1;SDS_P2;PMS_P1;PMS_P2;Temp;Humidity;BMP_temperature;BMP_pressure;BME280_temperature;BME280_humidity;BME280_pressure;Samples;Min_cycle;Max_cycle;Signal;HPM_P1;HPM_P2
2022/02/17 00:00:46;;;;;;;5.65;1.92;;;;;17.40;98999.00;;;;5086989;28;20231;-83
2022/02/17 00:03:14;;;;;;;5.57;1.75;;;;;17.40;99018.00;;;;5075369;28;20738;-81
2022/02/17 00:05:41;;;;;;;9.73;2.33;;;;;17.40;99003.00;;;;5067389;28;20739;-81
2022/02/17 00:08:09;;;;;;;7.72;2.22;;;;;17.40;99000.00;;;;5072593;28;20198;-82
2022/02/17 00:10:36;;;;;;;11.80;2.28;;;;;17.40;98987.00;;;;5087018;28;20197;-81
2022/02/17 00:13:05;;;;;;;8.07;2.22;;;;;17.40;98990.00;;;;5082467;28;20203;-81
2022/02/17 00:15:33;;;;;;;8.70;1.95;;;;;17.40;99002.00;;;;5069979;28;20191;-82
2022/02/17 00:18:10;;;;;;;6.90;1.60;;;;;17.30;98992.00;;;;5071329;28;20195;-83
2022/02/17 00:20:38;;;;;;;6.00;1.67;;;;;17.40;99010.00;;;;5077808;28;20221;-82
2022/02/17 00:23:05;;;;;;;6.93;1.90;;;;;17.30;98997.00;;;;5070446;28;20615;-82
2022/02/17 00:25:32;;;;;;;4.80;1.45;;;;;17.30;99013.00;;;;5081718;28;20203;-81
2022/02/17 00:28:00;;;;;;;6.90;2.08;;;;;17.30;99015.00;;;;5103004;28;20201;-83
2022/02/17 00:30:29;;;;;;;6.20;1.40;;;;;17.30;99003.00;;;;5095204;28;20679;-82
2022/02/17 00:32:56;;;;;;;3.92;1.52;;;;;17.20;98994.00;;;;5070225;28;20207;-80
2022/02/17 00:35:24;;;;;;;6.18;1.30;;;;;17.20;99010.00;;;;5070833;28;20724;-80
2022/02/17 00:37:51;;;;;;;4.43;1.17;;;;;17.20;99009.00;;;;5070203;28;20203;-82
2022/02/17 00:40:18;;;;;;;5.28;1.48;;;;;17.20;98997.00;;;;5074422;28;20222;-82
2022/02/17 00:42:45;;;;;;;4.00;1.13;;;;;17.20;99008.00;;;;5079257;28;20195;-81
2022/02/17 00:45:13;;;;;;;8.27;1.98;;;;;17.20;99050.00;;;;5070184;28;20605;-82
2022/02/17 00:47:42;;;;;;;10.18;1.50;;;;;17.10;99062.00;;;;5070749;28;20206;-79
2022/02/17 00:50:10;;;;;;;6.82;1.60;;;;;17.00;99056.00;;;;5072261;28;20203;-79
2022/02/17 00:52:37;;;;;;;10.02;1.50;;;;;16.80;99026.00;;;;5076861;28;20194;-80
2022/02/17 00:55:06;;;;;;;5.75;1.08;;;;;16.70;99026.00;;;;5069892;28;20195;-82
2022/02/17 00:57:33;;;;;;;7.05;1.38;;;;;16.50;99043.00;;;;5074542;28;20214;-79
2022/02/17 01:00:00;;;;;;;6.38;1.67;;;;;16.30;99039.00;;;;5078061;28;20249;-80
2022/02/17 01:02:28;;;;;;;4.40;1.20;;;;;16.20;99009.00;;;;5080969;28;20550;-79
2022/02/17 01:04:56;;;;;;;4.97;1.33;;;;;16.00;99082.00;;;;5071049;28;20194;-78
2022/02/17 01:07:24;;;;;;;5.32;1.17;;;;;15.90;99031.00;;;;5072390;28;20248;-80
2022/02/17 01:09:51;;;;;;;7.38;1.85;;;;;15.70;99031.00;;;;5089392;28;20715;-79
2022/02/17 01:12:18;;;;;;;6.50;2.08;;;;;15.60;99031.00;;;;5074574;28;20198;-80
2022/02/17 01:14:45;;;;;;;4.90;1.08;;;;;15.50;99048.00;;;;5070735;28;20241;-79
2022/02/17 01:17:13;;;;;;;6.85;1.10;;;;;15.40;99042.00;;;;5073370;28;20257;-79
2022/02/17 01:19:40;;;;;;;6.05;1.17;;;;;15.30;99072.00;;;;5070742;28;20219;-80
2022/02/17 01:22:08;;;;;;;6.43;1.33;;;;;15.30;99079.00;;;;5086987;28;20202;-79
2022/02/17 01:24:36;;;;;;;7.32;1.10;;;;;15.30;99084.00;;;;5071738;28;20649;-81
2022/02/17 01:27:03;;;;;;;4.07;0.90;;;;;15.20;99091.00;;;;5069063;28;20203;-83
2022/02/17 01:29:30;;;;;;;5.00;1.20;;;;;15.20;99100.00;;;;5069799;28;20195;-80
2022/02/17 01:31:57;;;;;;;6.05;1.13;;;;;15.30;99096.00;;;;5080762;28;20691;-79
2022/02/17 01:34:25;;;;;;;8.90;2.00;;;;;15.20;99120.00;;;;5076872;28;20203;-80
2022/02/17 01:36:52;;;;;;;8.15;1.80;;;;;15.30;99114.00;;;;5080212;28;20205;-79
2022/02/17 01:39:20;;;;;;;13.00;2.35;;;;;15.20;99126.00;;;;5098591;28;20222;-80
2022/02/17 01:41:48;;;;;;;10.23;2.28;;;;;15.30;99139.00;;;;5079081;28;20269;-79
2022/02/17 01:44:15;;;;;;;14.55;2.17;;;;;15.30;99140.00;;;;5070605;28;20557;-79
2022/02/17 01:46:43;;;;;;;10.68;2.20;;;;;15.30;99160.00;;;;5078218;28;20247;-81
2022/02/17 01:49:12;;;;;;;15.23;2.72;;;;;15.30;99156.00;;;;5089299;28;20198;-80
2022/02/17 01:51:39;;;;;;;12.15;2.40;;;;;15.30;99149.00;;;;5078434;28;20194;-79
2022/02/17 01:54:07;;;;;;;9.13;2.15;;;;;15.30;99169.00;;;;5073104;28;20220;-81
2022/02/17 01:56:39;;;;;;;5.63;1.73;;;;;15.30;99166.00;;;;5088673;28;20193;-80
2022/02/17 01:59:08;;;;;;;5.95;1.50;;;;;15.40;99168.00;;;;5074149;28;20313;-80
2022/02/17 02:01:36;;;;;;;11.52;1.88;;;;;15.40;99188.00;;;;5075721;28;20568;-80
2022/02/17 02:04:04;;;;;;;10.20;2.13;;;;;15.50;99195.00;;;;5079657;28;20198;-80
2022/02/17 02:06:32;;;;;;;8.82;1.35;;;;;15.40;99195.00;;;;5069233;28;20653;-80
2022/02/17 02:09:00;;;;;;;11.23;2.38;;;;;15.50;99203.00;;;;5084742;28;20198;-81
2022/02/17 02:11:28;;;;;;;10.20;2.67;;;;;15.50;99201.00;;;;5083445;28;20560;-81
2022/02/17 02:13:57;;;;;;;10.90;2.00;;;;;15.60;99196.00;;;;5068900;28;20198;-80
2022/02/17 02:16:24;;;;;;;12.90;2.53;;;;;15.60;99213.00;;;;5068673;28;20230;-81
2022/02/17 02:18:51;;;;;;;9.38;1.52;;;;;15.60;99219.00;;;;5069237;28;20203;-81
2022/02/17 02:21:23;;;;;;;6.70;1.65;;;;;15.60;99229.00;;;;5071775;28;20218;-80
2022/02/17 02:23:51;;;;;;;10.55;1.85;;;;;15.60;99235.00;;;;5071245;28;20694;-81
2022/02/17 02:26:19;;;;;;;4.90;1.08;;;;;15.60;99253.00;;;;5069097;28;20214;-81
2022/02/17 02:28:46;;;;;;;12.52;1.80;;;;;15.70;99237.00;;;;5068758;28;20195;-82
2022/02/17 02:31:13;;;;;;;6.95;1.60;;;;;15.70;99233.00;;;;5084119;28;20205;-80
2022/02/17 02:33:43;;;;;;;10.65;2.15;;;;;15.60;99273.00;;;;5083175;28;20199;-81
2022/02/17 02:36:10;;;;;;;5.78;1.42;;;;;15.60;99266.00;;;;5068123;28;20317;-80
2022/02/17 02:38:39;;;;;;;7.13;1.50;;;;;15.60;99267.00;;;;5068593;28;20191;-81
2022/02/17 02:41:06;;;;;;;7.25;1.67;;;;;15.60;99299.00;;;;5071175;28;20230;-81
2022/02/17 02:43:34;;;;;;;5.95;1.70;;;;;15.60;99295.00;;;;5068357;28;20214;-81
2022/02/17 02:46:01;;;;;;;5.45;1.30;;;;;15.60;99288.00;;;;5082262;28;20190;-80
2022/02/17 02:48:28;;;;;;;6.32;1.63;;;;;15.60;99304.00;;;;5077158;28;20206;-82
2022/02/17 02:50:56;;;;;;;8.18;1.98;;;;;15.60;99329.00;;;;5067583;28;20198;-82
2022/02/17 02:53:23;;;;;;;7.75;1.83;;;;;15.60;99300.00;;;;5068769;28;20423;-81
2022/02/17 02:55:51;;;;;;;8.45;2.17;;;;;15.60;99340.00;;;;5068145;28;20393;-82
2022/02/17 02:58:19;;;;;;;5.85;1.45;;;;;15.60;99330.00;;;;5071728;28;20669;-81
2022/02/17 03:00:49;;;;;;;8.07;1.23;;;;;15.60;99326.00;;;;5069734;28;20222;-82
2022/02/17 03:03:17;;;;;;;9.70;2.40;;;;;15.60;99350.00;;;;5068481;28;20195;-81
2022/02/17 03:05:45;;;;;;;12.98;2.30;;;;;15.50;99334.00;;;;5068495;28;20667;-82
2022/02/17 03:08:13;;;;;;;5.63;1.40;;;;;15.50;99308.00;;;;5071710;28;20198;-83
2022/02/17 03:10:41;;;;;;;7.30;2.05;;;;;15.50;99323.00;;;;5082183;28;20191;-82
2022/02/17 03:13:09;;;;;;;12.52;2.75;;;;;15.50;99325.00;;;;5068484;28;20202;-81
2022/02/17 03:15:36;;;;;;;7.78;1.70;;;;;15.50;99340.00;;;;5067870;28;20722;-82
2022/02/17 03:18:05;;;;;;;12.90;2.35;;;;;15.40;99353.00;;;;5068361;28;20202;-81
2022/02/17 03:20:32;;;;;;;12.18;2.58;;;;;15.40;99334.00;;;;5078375;28;20228;-82
2022/02/17 03:23:00;;;;;;;9.95;1.55;;;;;15.40;99344.00;;;;5070288;28;20195;-81
2022/02/17 03:25:27;;;;;;;14.02;1.95;;;;;15.30;99380.00;;;;5068969;28;20187;-80
2022/02/17 03:27:54;;;;;;;7.05;1.25;;;;;15.30;99397.00;;;;5083963;28;20205;-81
2022/02/17 03:30:23;;;;;;;10.25;1.83;;;;;15.20;99378.00;;;;5084259;28;20191;-82
2022/02/17 03:32:50;;;;;;;16.55;3.00;;;;;15.20;99388.00;;;;5079667;28;20198;-82
2022/02/17 03:35:17;;;;;;;6.22;1.30;;;;;15.20;99388.00;;;;5071454;28;20573;-82
2022/02/17 03:37:44;;;;;;;14.18;2.58;;;;;15.10;99388.00;;;;5078680;28;20195;-81
2022/02/17 03:40:12;;;;;;;7.45;1.88;;;;;15.10;99393.00;;;;5067344;28;20248;-82
2022/02/17 03:42:42;;;;;;;8.88;1.73;;;;;15.00;99448.00;;;;5067551;28;20199;-83
2022/02/17 03:45:10;;;;;;;10.27;1.60;;;;;15.00;99410.00;;;;5067891;28;20617;-84
2022/02/17 03:47:39;;;;;;;6.57;1.33;;;;;15.00;99410.00;;;;5067094;28;20206;-82
2022/02/17 03:50:08;;;;;;;9.48;2.50;;;;;15.00;99421.00;;;;5072012;28;20333;-83
2022/02/17 03:52:37;;;;;;;7.95;2.00;;;;;15.00;99425.00;;;;5087250;28;20568;-82
2022/02/17 03:55:05;;;;;;;8.15;1.25;;;;;15.00;99435.00;;;;5070919;28;20203;-82
2022/02/17 03:57:32;;;;;;;5.93;1.63;;;;;15.00;99439.00;;;;5079798;28;20294;-82
2022/02/17 03:59:59;;;;;;;11.60;1.52;;;;;15.00;99464.00;;;;5075515;28;20233;-83
2022/02/17 04:02:26;;;;;;;10.70;2.03;;;;;15.00;99449.00;;;;5071622;28;20249;-83
2022/02/17 04:04:55;;;;;;;7.05;1.33;;;;;15.00;99464.00;;;;5071504;28;20199;-82
2022/02/17 04:07:22;;;;;;;6.32;2.25;;;;;15.10;99471.00;;;;5075424;28;20253;-83
2022/02/17 04:09:49;;;;;;;5.88;1.40;;;;;15.10;99482.00;;;;5072099;28;20568;-84
2022/02/17 04:12:16;;;;;;;10.27;1.83;;;;;15.10;99472.00;;;;5077699;28;20201;-83
2022/02/17 04:14:43;;;;;;;8.57;1.83;;;;;15.10;99484.00;;;;5076148;28;20199;-85
2022/02/17 04:17:11;;;;;;;8.88;1.92;;;;;15.10;99484.00;;;;5070610;28;21204;-84
2022/02/17 04:19:38;;;;;;;9.80;2.40;;;;;15.10;99478.00;;;;5071632;28;20202;-84
2022/02/17 04:22:08;;;;;;;8.82;1.83;;;;;15.00;99496.00;;;;5070818;28;20223;-83
2022/02/17 04:24:35;;;;;;;8.90;1.67;;;;;15.10;99521.00;;;;5072157;28;20206;-83
2022/02/17 04:27:02;;;;;;;9.93;1.70;;;;;15.00;99516.00;;;;5070775;28;20214;-83
2022/02/17 04:29:30;;;;;;;6.60;1.65;;;;;15.00;99528.00;;;;5071086;28;20191;-83
2022/02/17 04:31:57;;;;;;;10.43;2.50;;;;;15.10;99549.00;;;;5072763;28;20548;-82
2022/02/17 04:34:24;;;;;;;8.98;1.75;;;;;15.10;99554.00;;;;5070440;28;20689;-83
2022/02/17 04:36:52;;;;;;;11.00;1.80;;;;;15.10;99550.00;;;;5090478;28;20205;-82
2022/02/17 04:39:20;;;;;;;10.40;2.25;;;;;15.10;99561.00;;;;5076984;28;20579;-81
2022/02/17 04:44:32;;;;;;;11.40;1.98;;;;;15.10;99551.00;;;;5072461;28;20194;-83
2022/02/17 04:47:00;;;;;;;9.32;2.10;;;;;15.10;99533.00;;;;5070558;28;20195;-82
2022/02/17 04:49:27;;;;;;;9.50;2.45;;;;;15.10;99566.00;;;;5070399;28;20187;-84
2022/02/17 04:51:54;;;;;;;6.57;1.65;;;;;15.00;99588.00;;;;5075564;28;20606;-83
2022/02/17 04:54:23;;;;;;;9.38;1.83;;;;;15.00;99577.00;;;;5083930;28;20191;-84
2022/02/17 04:56:50;;;;;;;13.45;2.13;;;;;15.10;99592.00;;;;5071072;28;20206;-82
2022/02/17 04:59:19;;;;;;;6.97;1.75;;;;;15.00;99578.00;;;;5070973;28;20671;-82
2022/02/17 05:01:46;;;;;;;13.98;2.63;;;;;15.00;99599.00;;;;5084119;28;20590;-83
2022/02/17 05:04:13;;;;;;;9.48;2.55;;;;;15.00;99556.00;;;;5088286;28;20192;-81
2022/02/17 05:06:41;;;;;;;13.45;2.10;;;;;15.00;99576.00;;;;5090895;28;20194;-83
2022/02/17 05:09:08;;;;;;;9.55;2.15;;;;;15.10;99576.00;;;;5082736;28;20240;-82
2022/02/17 05:11:37;;;;;;;6.30;1.73;;;;;15.10;99580.00;;;;5091908;28;20202;-83
2022/02/17 05:14:05;;;;;;;10.68;2.10;;;;;15.10;99597.00;;;;5086818;28;20196;-83
2022/02/17 05:16:32;;;;;;;10.88;2.40;;;;;15.10;99606.00;;;;5081397;28;20225;-83
2022/02/17 05:19:00;;;;;;;9.63;1.90;;;;;15.10;99620.00;;;;5073275;28;20234;-82
2022/02/17 05:21:27;;;;;;;11.82;2.22;;;;;15.10;99635.00;;;;5070038;28;20245;-83
2022/02/17 05:23:54;;;;;;;10.13;2.97;;;;;15.10;99641.00;;;;5070395;28;20207;-83
2022/02/17 05:26:22;;;;;;;11.32;2.58;;;;;15.10;99655.00;;;;5073333;28;20199;-82
2022/02/17 05:28:50;;;;;;;17.33;3.53;;;;;15.00;99653.00;;;;5075070;28;20206;-81
2022/02/17 05:31:17;;;;;;;11.07;2.00;;;;;14.90;99667.00;;;;5070342;28;20697;-81
2022/02/17 05:33:45;;;;;;;6.95;1.70;;;;;14.80;99670.00;;;;5080726;28;20206;-80
2022/02/17 05:36:12;;;;;;;9.75;1.38;;;;;14.70;99667.00;;;;5069991;28;20593;-80
2022/02/17 05:38:39;;;;;;;9.07;1.60;;;;;14.60;99692.00;;;;5073086;28;20191;-82
2022/02/17 05:41:06;;;;;;;10.55;2.10;;;;;14.50;99691.00;;;;5072490;28;20222;-81
2022/02/17 05:43:34;;;;;;;4.97;1.27;;;;;14.40;99699.00;;;;5079016;28;20194;-83
2022/02/17 05:46:02;;;;;;;7.85;1.55;;;;;14.30;99695.00;;;;5069590;28;20583;-82
2022/02/17 05:48:29;;;;;;;6.68;1.48;;;;;14.20;99711.00;;;;5070284;28;20195;-82
2022/02/17 05:50:57;;;;;;;4.60;0.98;;;;;14.20;99712.00;;;;5069821;28;20206;-83
2022/02/17 05:53:24;;;;;;;8.63;1.92;;;;;14.20;99703.00;;;;5069060;28;20744;-82
2022/02/17 05:55:51;;;;;;;9.40;2.10;;;;;14.10;99709.00;;;;5068398;28;20203;-82
2022/02/17 05:58:18;;;;;;;7.90;1.77;;;;;14.10;99728.00;;;;5070482;28;20198;-83
2022/02/17 06:00:46;;;;;;;8.73;2.25;;;;;14.10;99729.00;;;;5072672;28;20233;-83
2022/02/17 06:03:14;;;;;;;8.52;2.50;;;;;14.10;99727.00;;;;5080325;28;20615;-81
2022/02/17 06:05:42;;;;;;;5.97;2.00;;;;;14.10;99736.00;;;;5076562;28;20203;-83
2022/02/17 06:08:09;;;;;;;11.13;1.80;;;;;14.10;99740.00;;;;5088360;28;20198;-83
2022/02/17 06:10:36;;;;;;;8.75;2.13;;;;;14.10;99717.00;;;;5086177;28;20187;-83
2022/02/17 06:13:04;;;;;;;10.68;2.75;;;;;14.10;99754.00;;;;5086366;28;20210;-83
2022/02/17 06:15:32;;;;;;;6.63;1.67;;;;;14.10;99743.00;;;;5069748;28;20597;-82
2022/02/17 06:18:00;;;;;;;5.40;1.83;;;;;14.10;99743.00;;;;5088856;28;20190;-82
2022/02/17 06:20:28;;;;;;;6.93;1.75;;;;;14.10;99760.00;;;;5088167;28;20277;-82
2022/02/17 06:22:56;;;;;;;6.63;1.23;;;;;14.10;99767.00;;;;5070306;28;20206;-82
2022/02/17 06:25:23;;;;;;;4.03;1.80;;;;;14.10;99778.00;;;;5069531;28;20213;-83
2022/02/17 06:27:51;;;;;;;3.42;1.20;;;;;14.10;99776.00;;;;5072309;28;20675;-82
2022/02/17 06:30:20;;;;;;;9.82;2.00;;;;;14.20;99767.00;;;;5086425;28;20194;-82
2022/02/17 06:32:48;;;;;;;6.63;1.35;;;;;14.10;99793.00;;;;5071307;28;20203;-83
2022/02/17 06:35:18;;;;;;;4.97;1.50;;;;;14.20;99802.00;;;;5069419;28;20195;-81
2022/02/17 06:37:47;;;;;;;6.10;1.38;;;;;14.20;99804.00;;;;5087640;28;20256;-82
2022/02/17 06:40:15;;;;;;;8.27;1.40;;;;;14.20;99796.00;;;;5080980;28;20221;-82
2022/02/17 06:42:42;;;;;;;7.25;1.75;;;;;14.20;99804.00;;;;5081724;28;20219;-81
2022/02/17 06:45:11;;;;;;;5.80;1.50;;;;;14.30;99828.00;;;;5081257;28;20217;-83
2022/02/17 06:47:38;;;;;;;6.20;1.08;;;;;14.30;99842.00;;;;5089585;28;20202;-81
2022/02/17 06:50:09;;;;;;;8.27;1.58;;;;;14.20;99825.00;;;;5072047;28;20209;-82
2022/02/17 06:52:37;;;;;;;4.60;1.40;;;;;14.20;99852.00;;;;5088554;28;20322;-82
2022/02/17 06:55:06;;;;;;;9.20;1.70;;;;;14.20;99858.00;;;;5088740;28;20305;-82
2022/02/17 06:57:34;;;;;;;3.40;1.00;;;;;14.20;99897.00;;;;5074614;28;20615;-83
2022/02/17 07:00:03;;;;;;;9.05;1.73;;;;;14.20;99852.00;;;;5086748;28;20194;-86
2022/02/17 07:02:33;;;;;;;8.75;1.42;;;;;14.20;99851.00;;;;5092520;28;20214;-83
2022/02/17 07:05:01;;;;;;;4.88;1.10;;;;;14.20;99866.00;;;;5107288;28;20200;-83
2022/02/17 07:07:29;;;;;;;5.25;0.80;;;;;14.20;99846.00;;;;5088443;28;20259;-82
2022/02/17 07:12:43;;;;;;;9.00;1.20;;;;;14.20;99888.00;;;;5079300;28;20793;-82
2022/02/17 07:15:11;;;;;;;5.03;1.35;;;;;14.20;99880.00;;;;5082733;28;20190;-81
2022/02/17 07:17:38;;;;;;;4.90;1.08;;;;;14.20;99909.00;;;;5094099;28;20221;-76
2022/02/17 07:20:06;;;;;;;4.35;1.00;;;;;14.10;99907.00;;;;5085127;28;20201;-80
2022/02/17 07:22:33;;;;;;;3.25;0.80;;;;;14.10;99906.00;;;;5090638;28;20710;-81
2022/02/17 07:25:01;;;;;;;9.93;1.27;;;;;14.00;99921.00;;;;5089900;28;20194;-81
2022/02/17 07:27:29;;;;;;;4.45;1.08;;;;;13.90;99936.00;;;;5074614;28;20695;-81
2022/02/17 07:29:58;;;;;;;9.20;1.85;;;;;13.90;99933.00;;;;5079285;28;20566;-81
2022/02/17 07:32:25;;;;;;;2.97;1.25;;;;;13.90;99952.00;;;;5085638;28;20568;-80
2022/02/17 07:34:52;;;;;;;6.50;1.17;;;;;13.80;99955.00;;;;5084758;28;20208;-81
2022/02/17 07:37:19;;;;;;;5.63;1.38;;;;;13.80;99973.00;;;;5093216;28;20203;-81
2022/02/17 07:39:47;;;;;;;8.88;1.20;;;;;13.80;99964.00;;;;5078680;28;20226;-80
2022/02/17 07:42:15;;;;;;;5.68;0.98;;;;;13.80;99991.00;;;;5074718;28;20309;-82
2022/02/17 07:44:43;;;;;;;7.25;0.90;;;;;13.80;99976.00;;;;5074597;28;20248;-80
2022/02/17 07:47:11;;;;;;;6.35;1.30;;;;;13.80;99981.00;;;;5086679;28;20623;-82
2022/02/17 07:49:39;;;;;;;3.80;0.70;;;;;13.80;99980.00;;;;5075595;28;20198;-81
2022/02/17 07:52:06;;;;;;;4.75;1.35;;;;;13.80;100006.00;;;;5078117;28;20204;-81
2022/02/17 07:54:34;;;;;;;4.68;1.00;;;;;13.80;100011.00;;;;5074863;28;20203;-81
2022/02/17 07:57:03;;;;;;;5.57;1.00;;;;;13.90;100007.00;;;;5077975;28;20190;-81
2022/02/17 07:59:30;;;;;;;3.85;1.13;;;;;13.90;100025.00;;;;5093203;28;20199;-82
2022/02/17 08:01:58;;;;;;;6.00;1.02;;;;;13.90;100046.00;;;;5078059;28;20272;-81
2022/02/17 08:04:26;;;;;;;4.40;1.08;;;;;13.90;100036.00;;;;5081505;28;20197;-82
2022/02/17 08:06:53;;;;;;;6.38;1.05;;;;;13.90;100043.00;;;;5084881;28;20223;-82
2022/02/17 08:09:21;;;;;;;4.82;1.15;;;;;14.00;100049.00;;;;5086518;28;20514;-82
2022/02/17 08:11:49;;;;;;;6.50;1.20;;;;;14.00;100076.00;;;;5079379;28;20691;-82
2022/02/17 08:14:16;;;;;;;3.53;0.90;;;;;14.10;100064.00;;;;5084683;28;20198;-79
2022/02/17 08:16:43;;;;;;;3.88;0.95;;;;;14.10;100059.00;;;;5075132;28;20241;-81
2022/02/17 08:19:11;;;;;;;4.43;0.98;;;;;14.20;100080.00;;;;5076375;28;20203;-81
2022/02/17 08:21:39;;;;;;;8.50;1.38;;;;;14.20;100080.00;;;;5076964;28;20289;-79
2022/02/17 08:24:07;;;;;;;5.07;1.23;;;;;14.20;100089.00;;;;5087298;28;20657;-80
2022/02/17 08:26:34;;;;;;;4.40;1.30;;;;;14.20;100077.00;;;;5093532;28;20617;-79
2022/02/17 08:29:02;;;;;;;3.78;1.08;;;;;14.30;100087.00;;;;5076523;28;20841;-80
2022/02/17 08:31:30;;;;;;;5.50;1.23;;;;;14.20;100109.00;;;;5090694;28;20205;-80
2022/02/17 08:34:00;;;;;;;2.22;0.60;;;;;14.30;100094.00;;;;5078833;28;20529;-82
2022/02/17 08:36:27;;;;;;;4.70;0.88;;;;;14.30;100100.00;;;;5070818;28;20252;-81
2022/02/17 08:38:55;;;;;;;4.07;1.08;;;;;14.30;100096.00;;;;5075769;28;20561;-80
2022/02/17 08:41:23;;;;;;;6.38;0.95;;;;;14.30;100092.00;;;;5074872;28;20203;-79
2022/02/17 08:43:51;;;;;;;5.68;1.30;;;;;14.40;100114.00;;;;5075173;28;20191;-81
2022/02/17 08:46:20;;;;;;;5.68;1.10;;;;;14.40;100116.00;;;;5080294;28;20229;-81
2022/02/17 08:48:48;;;;;;;12.07;1.95;;;;;14.40;100127.00;;;;5073606;28;20198;-80
2022/02/17 08:51:17;;;;;;;4.18;1.10;;;;;14.50;100129.00;;;;5071824;28;20268;-80
2022/02/17 08:53:44;;;;;;;3.60;1.05;;;;;14.50;100132.00;;;;5071792;28;20199;-80
2022/02/17 08:56:12;;;;;;;5.72;1.20;;;;;14.50;100144.00;;;;5082672;28;20203;-80
2022/02/17 08:58:40;;;;;;;4.43;1.20;;;;;14.50;100139.00;;;;5071359;28;20198;-83
2022/02/17 09:01:07;;;;;;;6.65;0.82;;;;;14.50;100154.00;;;;5077657;28;20199;-81
2022/02/17 09:03:34;;;;;;;3.97;0.77;;;;;14.50;100165.00;;;;5089270;28;20690;-81
2022/02/17 09:06:01;;;;;;;5.07;1.27;;;;;14.50;100146.00;;;;5096506;28;20202;-81
2022/02/17 09:08:29;;;;;;;5.05;0.95;;;;;14.50;100166.00;;;;5071343;28;20210;-81
2022/02/17 09:10:56;;;;;;;4.60;0.80;;;;;14.50;100171.00;;;;5082852;28;20195;-82
2022/02/17 09:13:25;;;;;;;13.60;1.55;;;;;14.40;100167.00;;;;5073889;28;20716;-82
2022/02/17 09:15:53;;;;;;;5.68;0.90;;;;;14.40;100190.00;;;;5068640;28;20380;-80
2022/02/17 09:18:20;;;;;;;6.05;1.30;;;;;14.40;100196.00;;;;5071372;28;20191;-81
2022/02/17 09:20:47;;;;;;;5.25;0.70;;;;;14.40;100196.00;;;;5070362;28;20206;-79
2022/02/17 09:23:14;;;;;;;3.28;0.90;;;;;14.50;100221.00;;;;5069545;28;20223;-80
2022/02/17 09:25:42;;;;;;;3.20;0.90;;;;;14.50;100217.00;;;;5074339;28;20194;-79
2022/02/17 09:28:09;;;;;;;9.18;1.75;;;;;14.50;100209.00;;;;5074861;28;20544;-78
2022/02/17 09:30:39;;;;;;;5.57;1.17;;;;;14.50;100204.00;;;;5086121;28;20218;-79
2022/02/17 09:33:06;;;;;;;6.35;1.17;;;;;14.50;100226.00;;;;5077691;28;20608;-81
2022/02/17 09:35:33;;;;;;;3.88;0.52;;;;;14.60;100228.00;;;;5077302;28;20225;-80
2022/02/17 09:38:01;;;;;;;5.38;0.85;;;;;14.60;100240.00;;;;5075255;28;20244;-80
2022/02/17 09:40:28;;;;;;;6.63;1.05;;;;;14.70;100224.00;;;;5078646;28;20225;-80
2022/02/17 09:42:55;;;;;;;1.13;0.45;;;;;14.70;100230.00;;;;5084122;28;20227;-81
2022/02/17 09:45:26;;;;;;;3.05;0.75;;;;;14.80;100224.00;;;;5072354;28;20191;-81
2022/02/17 09:47:55;;;;;;;6.68;1.08;;;;;14.80;100235.00;;;;5077305;28;20875;-81
2022/02/17 09:50:22;;;;;;;3.55;0.63;;;;;14.90;100229.00;;;;5068710;28;20187;-81
2022/02/17 09:52:50;;;;;;;6.93;0.95;;;;;15.00;100252.00;;;;5070085;28;20202;-79
2022/02/17 09:55:17;;;;;;;3.25;0.73;;;;;15.00;100242.00;;;;5070028;28;20207;-79
2022/02/17 09:57:45;;;;;;;5.63;1.00;;;;;15.00;100246.00;;;;5069559;28;20191;-79
2022/02/17 10:00:14;;;;;;;6.22;0.57;;;;;15.00;100266.00;;;;5084804;28;20202;-79
2022/02/17 10:02:41;;;;;;;4.90;0.82;;;;;15.10;100264.00;;;;5087563;28;20264;-81
2022/02/17 10:05:12;;;;;;;5.15;0.88;;;;;15.10;100273.00;;;;5069589;28;20209;-80
2022/02/17 10:07:42;;;;;;;2.30;0.73;;;;;15.20;100267.00;;;;5069280;28;20634;-78
2022/02/17 10:10:13;;;;;;;6.38;1.15;;;;;15.20;100285.00;;;;5076871;28;20202;-83
2022/02/17 10:12:51;;;;;;;3.75;0.90;;;;;15.20;100287.00;;;;5076057;28;20323;-80
2022/02/17 10:15:32;;;;;;;4.07;1.23;;;;;15.20;100308.00;;;;5067232;28;20636;-80
2022/02/17 10:18:05;;;;;;;5.45;1.50;;;;;15.30;100310.00;;;;5067040;28;20199;-79
2022/02/17 10:20:52;;;;;;;5.30;1.55;;;;;15.20;100302.00;;;;5071244;28;20209;-79
2022/02/17 10:23:20;;;;;;;3.05;0.68;;;;;15.30;100313.00;;;;5067837;28;20766;-81
2022/02/17 10:26:07;;;;;;;1.38;0.50;;;;;15.20;100331.00;;;;5073615;28;20198;-79
2022/02/17 10:28:37;;;;;;;4.53;0.50;;;;;15.30;100336.00;;;;5072647;28;20194;-81
2022/02/17 10:31:05;;;;;;;2.30;0.75;;;;;15.30;100339.00;;;;5074595;28;20195;-80
2022/02/17 10:33:41;;;;;;;3.30;0.93;;;;;15.30;100340.00;;;;5067322;28;20268;-80
2022/02/17 10:36:10;;;;;;;3.80;0.52;;;;;15.40;100331.00;;;;5068116;28;20675;-80
2022/02/17 10:38:37;;;;;;;5.88;0.70;;;;;15.40;100346.00;;;;5085354;28;20225;-79
2022/02/17 10:41:05;;;;;;;3.90;0.75;;;;;15.40;100357.00;;;;5093154;28;20210;-80
2022/02/17 10:43:33;;;;;;;2.78;0.80;;;;;15.50;100343.00;;;;5080138;28;20756;-81
2022/02/17 10:46:07;;;;;;;6.07;0.88;;;;;15.40;100348.00;;;;5073274;28;20202;-80
2022/02/17 10:48:35;;;;;;;3.42;0.70;;;;;15.40;100363.00;;;;5063660;28;20209;-80
2022/02/17 10:51:10;;;;;;;5.53;0.88;;;;;15.40;100363.00;;;;5075840;28;20206;-80
2022/02/17 10:53:42;;;;;;;3.83;0.77;;;;;15.50;100371.00;;;;5068606;28;20194;-80
2022/02/17 10:56:13;;;;;;;4.88;1.08;;;;;15.60;100381.00;;;;5084833;28;20234;-80
2022/02/17 10:58:46;;;;;;;4.72;0.98;;;;;15.60;100378.00;;;;5074916;28;20202;-80
2022/02/17 11:01:14;;;;;;;6.53;1.25;;;;;15.70;100370.00;;;;5067959;28;20201;-80
2022/02/17 11:03:42;;;;;;;5.30;1.05;;;;;15.70;100395.00;;;;5068553;28;20268;-80
2022/02/17 11:06:14;;;;;;;2.75;0.57;;;;;15.70;100378.00;;;;5087315;28;20209;-80
2022/02/17 11:08:43;;;;;;;3.05;0.93;;;;;15.80;100417.00;;;;5086077;28;20454;-80
2022/02/17 11:11:13;;;;;;;3.15;0.63;;;;;15.80;100388.00;;;;5077562;28;20202;-79
2022/02/17 11:13:44;;;;;;;3.75;0.95;;;;;15.80;100400.00;;;;5085192;28;20210;-81
2022/02/17 11:16:15;;;;;;;3.00;1.05;;;;;15.90;100397.00;;;;5087687;28;20225;-80
2022/02/17 11:18:44;;;;;;;4.55;0.82;;;;;15.90;100400.00;;;;5088730;28;20273;-81
2022/02/17 11:21:16;;;;;;;6.78;1.13;;;;;15.80;100412.00;;;;5088535;28;20186;-80
2022/02/17 11:23:45;;;;;;;5.18;1.08;;;;;15.90;100413.00;;;;5086816;28;20229;-80
2022/02/17 11:26:21;;;;;;;6.50;1.13;;;;;15.80;100404.00;;;;5069864;28;20225;-82
2022/02/17 11:28:49;;;;;;;3.97;1.02;;;;;15.90;100402.00;;;;5073114;28;20244;-82
2022/02/17 11:31:16;;;;;;;5.25;0.90;;;;;15.90;100400.00;;;;5078002;28;20198;-82
2022/02/17 11:33:54;;;;;;;8.57;1.15;;;;;16.00;100416.00;;;;5068690;28;20257;-83
2022/02/17 11:36:40;;;;;;;4.45;1.20;;;;;15.90;100403.00;;;;5074469;28;20988;-83
2022/02/17 11:39:10;;;;;;;3.40;0.80;;;;;16.00;100402.00;;;;5079043;28;20221;-82
2022/02/17 11:41:39;;;;;;;2.97;0.80;;;;;16.10;100422.00;;;;5072658;28;20199;-81
2022/02/17 11:44:13;;;;;;;1.70;0.50;;;;;16.00;100406.00;;;;5071050;28;20218;-82
2022/02/17 11:46:50;;;;;;;1.48;0.70;;;;;16.10;100404.00;;;;5076177;28;20660;-82
2022/02/17 11:49:51;;;;;;;3.58;0.77;;;;;16.10;100411.00;;;;5072832;28;20305;-82
2022/02/17 11:52:22;;;;;;;3.42;0.95;;;;;16.20;100430.00;;;;5075020;28;20211;-82
2022/02/17 11:55:23;;;;;;;3.28;0.70;;;;;16.20;100442.00;;;;5091693;28;20198;-81
2022/02/17 11:57:51;;;;;;;6.18;0.93;;;;;16.40;100433.00;;;;5068239;28;20194;-82
2022/02/17 12:00:31;;;;;;;4.60;0.85;;;;;16.40;100443.00;;;;5067543;28;20195;-81
2022/02/17 12:03:00;;;;;;;2.67;0.80;;;;;16.50;100452.00;;;;5075599;28;20316;-83
2022/02/17 12:05:28;;;;;;;4.10;0.47;;;;;16.50;100441.00;;;;5103038;28;20579;-84
2022/02/17 12:08:24;;;;;;;6.75;1.10;;;;;16.40;100453.00;;;;5108213;28;20205;-82
2022/02/17 12:10:54;;;;;;;2.65;0.60;;;;;16.50;100487.00;;;;5091502;28;20202;-82
2022/02/17 12:13:38;;;;;;;3.00;0.63;;;;;16.30;100475.00;;;;5083504;28;20206;-82
2022/02/17 12:16:06;;;;;;;5.18;0.93;;;;;16.40;100483.00;;;;5071268;28;20237;-82
2022/02/17 12:18:37;;;;;;;5.65;1.00;;;;;16.30;100468.00;;;;5071309;28;20195;-82
2022/02/17 12:21:04;;;;;;;1.88;0.82;;;;;16.20;100459.00;;;;5075833;28;20290;-84
2022/02/17 12:23:36;;;;;;;2.67;0.73;;;;;16.20;100456.00;;;;5086729;28;20575;-83
2022/02/17 12:26:10;;;;;;;4.18;0.60;;;;;16.20;100456.00;;;;5084508;28;20206;-83